This is the latest recevied weather packets stored in our database for station/object VA3ZFM-10. If no packets are shown the sender has not sent any weather packets the latest 10 day(s).
| Time | Temp. | Humidity | Pressure | Rain* | Wind** | Luminosity | Snow |
|---|---|---|---|---|---|---|---|
| 1777743872 | 5° C | 57% | 1011.7 hPa | 0 mm | - | - | - |
| 1777743568 | 4.44° C | 58% | 1012 hPa | 0 mm | - | - | - |
| 1777743264 | 5° C | 57% | 1011.7 hPa | 0 mm | - | - | - |
| 1777742964 | 5.56° C | 56% | 1011.7 hPa | 0 mm | - | - | - |
| 1777742660 | 4.44° C | 56% | 1011.9 hPa | 0 mm | - | - | - |
| 1777742356 | 4.44° C | 56% | 1011.9 hPa | 0 mm | - | - | - |
| 1777742052 | 4.44° C | 57% | 1011.9 hPa | 0 mm | - | - | - |
| 1777741750 | 5° C | 57% | 1011.8 hPa | 0 mm | - | - | - |
| 1777741446 | 4.44° C | 57% | 1011.8 hPa | 0 mm | - | - | - |
| 1777741142 | 5° C | 57% | 1011.9 hPa | 0 mm | - | - | - |
| 1777740839 | 5° C | 54% | 1011.8 hPa | 0 mm | - | - | - |
| 1777740536 | 3.89° C | 57% | 1012.2 hPa | 0 mm | - | - | - |
| 1777740233 | 4.44° C | 62% | 1012 hPa | 0 mm | - | - | - |
| 1777739929 | 4.44° C | 62% | 1012.1 hPa | 0 mm | - | - | - |
| 1777739626 | 4.44° C | 61% | 1012.2 hPa | 0 mm | - | - | - |
| 1777739324 | 5° C | 62% | 1012.1 hPa | 0 mm | - | - | - |
| 1777739020 | 4.44° C | 61% | 1012.1 hPa | 0 mm | - | - | - |
| 1777738717 | 4.44° C | 64% | 1012.2 hPa | 0 mm | - | - | - |
| 1777738413 | 3.89° C | 66% | 1012.3 hPa | 0 mm | - | - | - |
| 1777738111 | 4.44° C | 65% | 1012.3 hPa | 0 mm | - | - | - |
| 1777737810 | 4.44° C | 67% | 1012.4 hPa | 0 mm | - | - | - |
| 1777737508 | 4.44° C | 66% | 1012.2 hPa | 0 mm | - | - | - |
| 1777737206 | 3.89° C | 68% | 1012.5 hPa | 0 mm | - | - | - |
| 1777736901 | 2.78° C | 69% | 1012.5 hPa | 0 mm | - | - | - |
| 1777736287 | 2.78° C | 73% | 1012.6 hPa | 0 mm | - | - | - |
* Rain latest hour (hover to see other rain measurements)
** Current wind speed in m/s (hover to see current wind gust speed)